• Join FlightAware (Why Join?)
  • Login
  • US Flag 
03:33AM EDT


 

Airport Tracker/Info


-or-


 

Live Flight TrackerFlight Track Log ✈ SWA1718 ✈ 17-Apr-2013 ✈ KDAL - KAMA

Flight Track Log - Related Links

Times and Time Zones

All times are in EDT time to prevent confusion due to time zone crossing. See the SWA1718 flight status page for this flight to view local times or setup timezone preferences in your user account.

Time Position Orientation Groundspeed Altitude Reporting Facility
EDT Latitude Longitude Course Direction KTS MPH feet Rate Location/Type
03:30PM 32.8333 -96.8333 301° West 157 181 1,700  Level Dallas / Fort Worth TRACON
03:31PM 32.7833 -96.7833 140° Southeast 215 247 4,300 2,400 Climbing Dallas / Fort Worth TRACON
03:32PM 32.7500 -96.7333 128° Southeast 226 260 6,300 2,100 Climbing Dallas / Fort Worth TRACON
03:33PM 32.6833 -96.7667 203° Southwest 229 264 8,400 1,800 Climbing Dallas / Fort Worth TRACON
03:34PM 32.6333 -96.8000 209° Southwest 245 282 10,000 1,500 Climbing Dallas / Fort Worth TRACON
03:35PM 32.5833 -96.8667 228° Southwest 323 372 11,500 1,860 Climbing Dallas / Fort Worth TRACON
03:36PM 33.0817 -97.3134 301° West  Level FlightAware Approximate
03:36PM 32.6197 -96.9522 297° West 361 415 13,800  Level Fort Worth Center
03:37PM 32.6742 -97.0433 305° West 379 436 15,500 2,100 Climbing Fort Worth Center
03:38PM 32.7433 -97.1589 305° West 379 436 18,000 2,340 Climbing Fort Worth Center
03:39PM 32.8144 -97.2750 306° West 384 442 20,200 2,100 Climbing Fort Worth Center
03:40PM 32.8708 -97.3689 306° West 384 442 22,300 1,380 Climbing Fort Worth Center
03:41PM 32.9419 -97.4853 306° West 391 450 23,000 1,200 Climbing Fort Worth Center
03:42PM 33.0106 -97.6042 305° West 415 478 24,700 1,560 Climbing Fort Worth Center
03:43PM 33.0772 -97.7158 305° West 420 483 26,200 1,680 Climbing Fort Worth Center
03:44PM 33.1228 -97.8350 295° West 404 465 28,100 1,440 Climbing Fort Worth Center
03:45PM 33.1619 -97.9569 291° West 399 459 29,100 1,260 Climbing Fort Worth Center
03:46PM 33.2031 -98.0864 291° West 404 465 30,700 1,440 Climbing Fort Worth Center
03:47PM 33.2400 -98.2058 290° West 398 458 32,000 600 Climbing Fort Worth Center
03:48PM 33.2747 -98.3228 290° West 382 440 32,000  Level Fort Worth Center
03:49PM 33.3072 -98.4225 291° West 371 427 32,000  Level Fort Worth Center
03:50PM 33.3481 -98.5450 292° West 364 419 32,000  Level Fort Worth Center
03:51PM 33.3803 -98.6572 289° West 364 419 32,000  Level Fort Worth Center
03:52PM 33.4147 -98.7722 290° West 369 425 32,000  Level Fort Worth Center
03:53PM 33.4489 -98.8847 290° West 364 419 32,000  Level Fort Worth Center
03:54PM 33.4850 -98.9950 291° West 364 419 32,000  Level Fort Worth Center
03:55PM 33.5189 -99.1103 289° West 364 419 32,000  Level Fort Worth Center
03:56PM 33.5508 -99.2231 289° West 364 419 32,000  Level Fort Worth Center
03:57PM 33.5867 -99.3383 290° West 369 425 32,000  Level Fort Worth Center
03:58PM 33.6267 -99.4492 293° West 369 425 32,000  Level Fort Worth Center
03:59PM 33.7064 -99.5433 316° Northwest 374 430 32,000  Level Fort Worth Center
04:00PM 33.7864 -99.6353 316° Northwest 388 447 32,000  Level Fort Worth Center
04:01PM 33.8703 -99.7250 318° Northwest 394 453 32,000  Level Fort Worth Center
04:02PM 33.9478 -99.8147 316° Northwest 399 459 32,000  Level Fort Worth Center
04:03PM 34.0275 -99.9019 318° Northwest 394 453 32,000  Level Fort Worth Center
04:04PM 34.1069 -99.9919 317° Northwest 394 453 32,000  Level Fort Worth Center
04:05PM 34.1847 -100.0747 319° Northwest 389 448 32,000  Level Fort Worth Center
04:06PM 34.2600 -100.1650 315° West 389 448 32,000 -360 Level Fort Worth Center
04:08PM 34.3825 -100.3056 317° Northwest 379 436 31,200 -1,380 Descending Albuquerque Center
04:09PM 34.4428 -100.4078 306° West 374 430 28,400 -2,580 Descending Albuquerque Center
04:10PM 34.5081 -100.5089 308° West 378 435 25,900 -2,100 Descending Albuquerque Center
04:11PM 34.5706 -100.6097 307° West 377 434 24,100 -1,680 Descending Albuquerque Center
04:12PM 34.6403 -100.7242 307° West 359 413 22,500 -2,040 Descending Albuquerque Center
04:13PM 34.7000 -100.8197 307° West 355 409 19,900 -2,580 Descending Albuquerque Center
04:14PM 34.7603 -100.9167 307° West 358 412 17,300 -2,400 Descending Albuquerque Center
04:15PM 34.7967 -101.0244 292° West 348 400 15,000 -2,100 Descending Albuquerque Center
04:16PM 34.8300 -101.1306 291° West 338 389 13,000 -1,920 Descending Albuquerque Center
04:17PM 34.8628 -101.2328 291° West 330 380 11,100 -1,500 Descending Albuquerque Center
04:18PM 34.8928 -101.3306 291° West 317 365 9,900 -1,560 Descending Albuquerque Center
04:19PM 34.9264 -101.4369 291° West 297 342 7,900 -1,620 Descending Albuquerque Center
04:20PM 34.9539 -101.5228 291° West 283 326 6,600 -1,080 Descending Albuquerque Center
04:21PM 34.9792 -101.6050 291° West 270 311 5,700 -660 Descending Albuquerque Center
04:22PM 35.0000 -101.6833 288° West 263 303 5,300 -240 Descending Albuquerque Center
04:23PM 35.0206 -101.7608 288° West 246 283 5,300  Level Albuquerque Center
04:24PM 35.0400 -101.8397 287° West 242 278 5,300  Level Albuquerque Center
04:25PM 35.0906 -101.8806 327° Northwest 250 288 5,300  Level Albuquerque Center
04:26PM 35.1281 -101.8286 49° Northeast 221 254 5,300 -300 Level Albuquerque Center
04:27PM 35.1686 -101.7783 45° Northeast 192 221 4,700 -660 Descending Albuquerque Center
04:28PM 35.1925 -101.7483 46° Northeast 150 173 4,000 -540 Descending Albuquerque Center
04:29PM 35.2164 -101.7183 46° Northeast 133 153 3,600 -420 Descending Albuquerque Center